Time;durP1;ratioP1;P1;durP2;ratioP2;P2;SDS_P1;SDS_P2;PMS_P1;PMS_P2;Temp;Humidity;BMP_temperature;BMP_pressure;BME280_temperature;BME280_humidity;BME280_pressure;Samples;Min_cycle;Max_cycle;Signal;HPM_P1;HPM_P2
2022/01/01 00:01:28;;;;;;;13.10;11.55;;;;;;;13.19;68.88;99578.53;5044637;28;20051;-71
2022/01/01 00:03:59;;;;;;;11.88;10.70;;;;;;;13.19;68.83;99583.81;5042281;28;20075;-70
2022/01/01 00:06:27;;;;;;;13.50;9.93;;;;;;;13.22;68.55;99588.00;5026580;28;20091;-69
2022/01/01 00:08:54;;;;;;;18.13;13.23;;;;;;;13.15;68.74;99585.94;5044620;28;20048;-70
2022/01/01 00:11:21;;;;;;;11.70;10.40;;;;;;;13.19;68.56;99586.47;5024071;28;20164;-71
2022/01/01 00:13:48;;;;;;;11.80;9.57;;;;;;;13.20;68.54;99594.28;5023176;28;20128;-72
2022/01/01 00:16:16;;;;;;;13.90;8.38;;;;;;;13.27;68.43;99597.22;5024262;28;20458;-71
2022/01/01 00:18:43;;;;;;;12.50;11.20;;;;;;;13.23;68.35;99590.50;5022229;28;20391;-71
2022/01/01 00:21:13;;;;;;;10.65;9.52;;;;;;;13.23;68.60;99603.75;5026165;28;20140;-72
2022/01/01 00:23:40;;;;;;;15.10;11.25;;;;;;;13.25;68.14;99604.44;5025589;28;20137;-73
2022/01/01 00:26:07;;;;;;;18.33;13.43;;;;;;;13.25;68.29;99603.63;5026228;28;20132;-75
2022/01/01 00:28:34;;;;;;;10.05;8.70;;;;;;;13.27;68.36;99601.66;5025931;28;20609;-74
2022/01/01 00:31:01;;;;;;;12.38;9.00;;;;;;;13.28;68.15;99614.78;5026919;28;20077;-72
2022/01/01 00:33:29;;;;;;;13.50;9.82;;;;;;;13.28;68.20;99606.00;5027479;28;20609;-77
2022/01/01 00:35:57;;;;;;;12.65;9.98;;;;;;;13.32;68.04;99600.28;5027614;28;20262;-73
2022/01/01 00:38:25;;;;;;;11.85;10.55;;;;;;;13.33;67.93;99612.56;5027420;28;20041;-72
2022/01/01 00:40:53;;;;;;;16.75;13.15;;;;;;;13.29;67.83;99611.16;5026895;28;20103;-75
2022/01/01 00:43:21;;;;;;;17.05;12.68;;;;;;;13.28;67.96;99621.91;5028135;28;20053;-75
2022/01/01 00:45:48;;;;;;;12.68;11.38;;;;;;;13.30;67.99;99622.59;5026951;28;20064;-75
2022/01/01 00:48:15;;;;;;;13.38;11.57;;;;;;;13.25;68.19;99619.53;5026286;28;20071;-73
2022/01/01 00:50:42;;;;;;;15.55;13.88;;;;;;;13.30;67.97;99622.59;5025210;28;20125;-73
2022/01/01 00:53:09;;;;;;;21.10;15.60;;;;;;;13.25;68.11;99628.31;5025648;28;20640;-75
2022/01/01 00:55:37;;;;;;;15.27;13.68;;;;;;;13.24;68.15;99631.13;5025496;28;20068;-75
2022/01/01 00:58:05;;;;;;;20.40;15.10;;;;;;;13.22;68.33;99627.75;5025976;28;20060;-73
2022/01/01 01:00:32;;;;;;;15.13;13.52;;;;;;;13.22;68.26;99631.28;5025528;28;20067;-71
2022/01/01 01:02:59;;;;;;;12.98;10.52;;;;;;;13.21;68.16;99632.25;5028279;28;20132;-73
2022/01/01 01:05:26;;;;;;;14.38;12.98;;;;;;;13.22;68.12;99636.56;5029164;28;20059;-76
2022/01/01 01:07:53;;;;;;;12.93;11.27;;;;;;;13.23;68.04;99630.28;5027273;28;20041;-72
2022/01/01 01:10:21;;;;;;;12.48;11.05;;;;;;;13.25;67.94;99646.06;5019133;28;20614;-75
2022/01/01 01:12:53;;;;;;;23.15;15.07;;;;;;;13.24;67.85;99639.09;5006948;28;20067;-72
2022/01/01 01:15:20;;;;;;;13.77;10.68;;;;;;;13.22;68.13;99656.94;5009830;28;20050;-74
2022/01/01 01:17:50;;;;;;;17.70;13.95;;;;;;;13.19;68.03;99644.81;5009862;28;20076;-74
2022/01/01 01:20:18;;;;;;;13.00;11.43;;;;;;;13.22;68.03;99656.94;5014609;28;20057;-73
2022/01/01 01:22:46;;;;;;;13.57;11.95;;;;;;;13.22;67.88;99657.78;5019370;28;20081;-74
2022/01/01 01:25:13;;;;;;;13.30;10.43;;;;;;;13.22;67.97;99662.25;5015585;28;20049;-71
2022/01/01 01:27:42;;;;;;;13.90;11.68;;;;;;;13.23;68.11;99658.63;5016646;28;20077;-69
2022/01/01 01:30:14;;;;;;;14.68;11.10;;;;;;;13.21;68.02;99666.72;4996723;28;20049;-73
2022/01/01 01:32:42;;;;;;;14.05;12.50;;;;;;;13.15;68.32;99664.66;5012642;28;20056;-74
2022/01/01 01:35:10;;;;;;;14.13;12.25;;;;;;;13.15;68.38;99678.72;5015816;28;20052;-73
2022/01/01 01:37:39;;;;;;;13.18;10.52;;;;;;;13.16;68.40;99677.75;5011494;28;20322;-72
2022/01/01 01:40:08;;;;;;;15.60;13.77;;;;;;;13.13;68.45;99675.38;5011130;28;20145;-76
2022/01/01 01:42:36;;;;;;;15.25;13.45;;;;;;;13.10;68.70;99683.63;5013234;28;20172;-73
2022/01/01 01:45:05;;;;;;;19.60;15.82;;;;;;;13.03;69.08;99685.16;5010175;28;20057;-74
2022/01/01 01:47:37;;;;;;;22.60;18.02;;;;;;;13.00;69.29;99682.81;5019791;28;20053;-76
2022/01/01 01:50:08;;;;;;;21.90;18.13;;;;;;;12.96;69.43;99684.91;5027723;28;20045;-74
2022/01/01 01:52:38;;;;;;;22.27;17.88;;;;;;;12.93;69.52;99692.31;5029540;28;20405;-73
2022/01/01 01:55:08;;;;;;;17.80;14.13;;;;;;;12.94;69.62;99697.44;5029699;28;20057;-75
2022/01/01 01:57:36;;;;;;;16.10;14.50;;;;;;;12.99;69.44;99702.34;5027389;28;20045;-74
2022/01/01 02:00:09;;;;;;;17.95;14.57;;;;;;;12.95;69.54;99699.13;5029087;28;20494;-76
2022/01/01 02:02:38;;;;;;;20.10;15.35;;;;;;;12.92;69.72;99695.91;5030038;28;20061;-78
2022/01/01 02:05:06;;;;;;;25.35;19.38;;;;;;;12.78;70.28;99700.66;5030412;28;20085;-78
2022/01/01 02:07:33;;;;;;;25.98;20.60;;;;;;;12.72;70.82;99709.16;5011100;28;20092;-73
2022/01/01 02:10:01;;;;;;;24.90;19.67;;;;;;;12.66;71.01;99701.78;5030183;28;20136;-74
2022/01/01 02:12:28;;;;;;;29.67;19.70;;;;;;;12.64;71.22;99711.69;5036515;28;20056;-76
2022/01/01 02:15:10;;;;;;;29.27;18.92;;;;;;;12.63;71.39;99715.28;5038146;28;20136;-72
2022/01/01 02:17:39;;;;;;;28.38;21.15;;;;;;;12.62;71.56;99703.00;5037253;28;20065;-72
2022/01/01 02:20:18;;;;;;;28.40;22.42;;;;;;;12.56;72.03;99703.56;5031783;28;20136;-72
2022/01/01 02:22:47;;;;;;;30.60;24.70;;;;;;;12.56;71.87;99709.69;4992748;28;20119;-74
2022/01/01 02:25:15;;;;;;;33.00;25.55;;;;;;;12.52;71.87;99715.44;5038772;28;20053;-75
2022/01/01 02:27:42;;;;;;;35.97;25.05;;;;;;;12.46;72.26;99713.31;5039859;28;20079;-73
2022/01/01 02:30:12;;;;;;;34.08;25.35;;;;;;;12.45;72.47;99728.38;5038662;28;20055;-73
2022/01/01 02:32:39;;;;;;;40.90;25.95;;;;;;;12.40;72.63;99728.75;5041103;28;20101;-74
2022/01/01 02:35:09;;;;;;;38.22;23.20;;;;;;;12.43;72.53;99732.97;5023674;28;20138;-74
2022/01/01 02:37:42;;;;;;;39.63;27.35;;;;;;;12.40;72.58;99733.22;5042366;28;20055;-73
2022/01/01 02:40:11;;;;;;;37.40;25.42;;;;;;;12.34;72.78;99734.63;5043404;28;20041;-74
2022/01/01 02:42:39;;;;;;;42.17;23.95;;;;;;;12.34;72.73;99747.84;5041152;28;20132;-72
2022/01/01 02:45:09;;;;;;;36.63;23.63;;;;;;;12.30;72.98;99741.16;5042975;28;20045;-74
2022/01/01 02:47:36;;;;;;;29.80;19.48;;;;;;;12.27;72.80;99744.06;5045327;28;20092;-75
2022/01/01 02:50:04;;;;;;;30.38;17.30;;;;;;;12.27;72.62;99743.25;5044346;28;20094;-75
2022/01/01 02:52:31;;;;;;;22.88;15.40;;;;;;;12.24;72.82;99746.97;5046309;28;20073;-72
2022/01/01 02:55:00;;;;;;;18.15;13.48;;;;;;;12.19;72.74;99742.09;5044138;28;20113;-70
2022/01/01 02:57:27;;;;;;;13.77;9.18;;;;;;;12.18;72.71;99755.47;5029878;28;20124;-72
2022/01/01 02:59:54;;;;;;;16.77;9.02;;;;;;;12.14;72.88;99760.19;5027083;28;20603;-74
2022/01/01 03:02:21;;;;;;;16.58;9.48;;;;;;;12.12;73.06;99758.63;5027317;28;20046;-73
2022/01/01 03:04:48;;;;;;;16.83;10.43;;;;;;;12.12;73.00;99772.72;5034987;28;20041;-73
2022/01/01 03:07:15;;;;;;;19.00;10.40;;;;;;;12.12;72.94;99769.22;5032359;28;20052;-72
2022/01/01 03:09:42;;;;;;;20.00;9.85;;;;;;;12.16;72.82;99770.66;5029643;28;20055;-73
2022/01/01 03:12:15;;;;;;;18.23;10.73;;;;;;;12.16;72.78;99778.59;5040434;28;20109;-73
2022/01/01 03:14:42;;;;;;;20.13;10.43;;;;;;;12.11;73.04;99775.50;5028522;28;20056;-70
2022/01/01 03:17:10;;;;;;;17.33;11.13;;;;;;;12.09;72.99;99762.41;5027677;28;20075;-71
2022/01/01 03:19:37;;;;;;;0.10;0.10;;;;;;;12.18;72.51;99763.41;5027796;28;20129;-70
2022/01/01 03:22:05;;;;;;;0.05;0.05;;;;;;;12.21;72.46;99763.97;5028091;28;20132;-75
2022/01/01 03:24:33;;;;;;;0.10;0.10;;;;;;;12.20;72.26;99778.19;5029125;28;20042;-73
2022/01/01 03:27:01;;;;;;;0.00;0.00;;;;;;;12.21;72.49;99786.97;5027891;28;20049;-73
2022/01/01 03:29:31;;;;;;;5.97;1.98;;;;;;;12.23;72.31;99793.81;5028447;28;20062;-72
2022/01/01 03:31:59;;;;;;;0.00;0.00;;;;;;;12.23;72.29;99790.34;5030099;28;20509;-73
2022/01/01 03:34:27;;;;;;;0.08;0.08;;;;;;;12.22;72.14;99793.94;5028716;28;20129;-73
2022/01/01 03:36:55;;;;;;;0.10;0.10;;;;;;;12.25;72.01;99798.97;5028028;28;20053;-74
2022/01/01 03:39:23;;;;;;;0.00;0.00;;;;;;;12.26;72.05;99794.50;5028357;28;20049;-75
2022/01/01 03:41:51;;;;;;;1.10;1.05;;;;;;;12.27;72.03;99796.19;5030382;28;20497;-74
2022/01/01 03:44:19;;;;;;;0.00;0.00;;;;;;;12.28;71.99;99806.66;5029680;28;20055;-74
2022/01/01 03:46:47;;;;;;;2.63;1.25;;;;;;;12.27;71.96;99807.63;5030844;28;20657;-73
2022/01/01 03:49:14;;;;;;;0.00;0.00;;;;;;;12.28;71.83;99804.00;5047504;28;20045;-72
2022/01/01 03:51:42;;;;;;;0.45;0.45;;;;;;;12.26;71.89;99811.22;5048616;28;20049;-75
2022/01/01 03:54:12;;;;;;;0.10;0.10;;;;;;;12.26;72.08;99813.03;5048792;28;20440;-74
2022/01/01 03:56:39;;;;;;;0.70;0.65;;;;;;;12.26;71.96;99805.94;5049055;28;20045;-72
2022/01/01 03:59:07;;;;;;;0.00;0.00;;;;;;;12.25;71.69;99822.81;5046193;28;20102;-76
2022/01/01 04:01:35;;;;;;;0.00;0.00;;;;;;;12.23;71.89;99819.44;5031231;28;20049;-73
2022/01/01 04:04:05;;;;;;;0.10;0.10;;;;;;;12.21;71.92;99816.09;5048907;28;20057;-74
2022/01/01 04:06:32;;;;;;;0.50;0.50;;;;;;;12.18;71.86;99819.84;5047133;28;20057;-75
2022/01/01 04:09:00;;;;;;;1.08;1.08;;;;;;;12.17;71.89;99830.56;5031281;28;20052;-72
2022/01/01 04:11:27;;;;;;;0.10;0.10;;;;;;;12.15;71.91;99827.22;5037606;28;20052;-72
2022/01/01 04:13:54;;;;;;;0.25;0.25;;;;;;;12.14;71.87;99825.53;5029008;28;20120;-75
2022/01/01 04:16:22;;;;;;;0.45;0.45;;;;;;;12.14;71.68;99842.25;5027604;28;20077;-75
2022/01/01 04:18:50;;;;;;;0.00;0.00;;;;;;;12.12;71.73;99853.94;5028359;28;20061;-74
2022/01/01 04:21:19;;;;;;;0.95;0.95;;;;;;;12.12;71.77;99851.28;5027911;28;20132;-73
2022/01/01 04:23:46;;;;;;;0.68;0.68;;;;;;;12.10;71.84;99848.78;5029285;28;20153;-77
2022/01/01 04:26:13;;;;;;;0.10;0.10;;;;;;;12.13;71.57;99858.28;5029982;28;20140;-76
2022/01/01 04:28:41;;;;;;;0.43;0.43;;;;;;;12.17;71.37;99870.28;5028131;28;20057;-74
2022/01/01 04:31:08;;;;;;;0.28;0.28;;;;;;;12.17;71.28;99857.03;5027080;28;20053;-74
2022/01/01 04:33:36;;;;;;;0.65;0.65;;;;;;;12.18;71.38;99858.72;5026957;28;20163;-74
2022/01/01 04:36:03;;;;;;;0.10;0.10;;;;;;;12.19;71.35;99845.34;5027128;28;20121;-75
2022/01/01 04:38:37;;;;;;;0.52;0.52;;;;;;;12.19;71.52;99861.25;5026641;28;20152;-71
2022/01/01 04:41:05;;;;;;;0.52;0.52;;;;;;;12.18;71.39;99871.97;5026818;28;20042;-73
2022/01/01 04:43:32;;;;;;;0.10;0.10;;;;;;;12.15;71.27;99864.28;5027723;28;20427;-75
2022/01/01 04:45:59;;;;;;;0.00;0.00;;;;;;;12.15;71.27;99865.09;5026782;28;20508;-71
2022/01/01 04:48:26;;;;;;;0.40;0.40;;;;;;;12.16;71.08;99860.66;5010399;28;20463;-74
2022/01/01 04:50:53;;;;;;;0.00;0.00;;;;;;;12.13;70.97;99876.81;5005579;28;20045;-74
2022/01/01 04:53:20;;;;;;;0.00;0.00;;;;;;;12.13;70.87;99885.56;5007562;28;20054;-73
2022/01/01 04:55:50;;;;;;;0.00;0.00;;;;;;;12.13;70.93;99879.44;5007338;28;20056;-74
2022/01/01 04:58:16;;;;;;;0.00;0.00;;;;;;;12.12;70.63;99889.22;5005698;28;20146;-78
2022/01/01 05:00:44;;;;;;;0.10;0.10;;;;;;;12.11;70.65;99894.63;5006123;28;20109;-70
2022/01/01 05:03:11;;;;;;;0.10;0.10;;;;;;;12.11;70.66;99891.97;5009392;28;20172;-73
2022/01/01 05:05:37;;;;;;;0.47;0.47;;;;;;;12.10;70.64;99895.59;5009082;28;20046;-71
2022/01/01 05:08:05;;;;;;;0.00;0.00;;;;;;;12.08;70.52;99898.34;5011556;28;20128;-74
2022/01/01 05:10:32;;;;;;;0.68;0.68;;;;;;;12.07;70.43;99894.06;5023300;28;20050;-72
2022/01/01 05:13:00;;;;;;;0.00;0.00;;;;;;;12.01;70.69;99906.00;5006432;28;20058;-74
2022/01/01 05:15:28;;;;;;;0.00;0.00;;;;;;;12.02;70.48;99910.31;5009752;28;20046;-76
2022/01/01 05:17:56;;;;;;;1.35;0.98;;;;;;;11.99;70.53;99913.22;5007211;28;20509;-72
2022/01/01 05:20:23;;;;;;;0.00;0.00;;;;;;;12.00;70.55;99917.53;5004974;28;20279;-74
2022/01/01 05:22:50;;;;;;;0.00;0.00;;;;;;;11.98;70.43;99903.59;5005804;28;20054;-72
2022/01/01 05:25:17;;;;;;;0.35;0.35;;;;;;;11.98;70.42;99919.47;5006162;28;20475;-75
2022/01/01 05:27:44;;;;;;;0.25;0.25;;;;;;;11.97;70.42;99920.44;5006463;28;20628;-74
2022/01/01 05:30:13;;;;;;;0.05;0.05;;;;;;;11.96;70.47;99936.47;5006882;28;20045;-72
2022/01/01 05:32:40;;;;;;;0.00;0.00;;;;;;;11.94;70.46;99941.03;5005824;28;20058;-70
2022/01/01 05:35:10;;;;;;;0.10;0.10;;;;;;;11.96;70.39;99941.75;5006087;28;20739;-72
2022/01/01 05:37:37;;;;;;;0.10;0.10;;;;;;;11.93;70.30;99937.53;5007724;28;20274;-72
2022/01/01 05:40:05;;;;;;;0.63;0.63;;;;;;;11.95;70.28;99948.00;5010622;28;20046;-69
2022/01/01 05:42:32;;;;;;;0.00;0.00;;;;;;;11.94;70.23;99949.81;5019366;28;20122;-70
2022/01/01 05:44:59;;;;;;;0.00;0.00;;;;;;;11.97;70.19;99946.06;5008546;28;20046;-74
2022/01/01 05:47:27;;;;;;;0.10;0.10;;;;;;;11.95;70.34;99954.13;5013817;28;20060;-72
2022/01/01 05:49:54;;;;;;;0.30;0.30;;;;;;;11.97;70.32;99956.66;5023865;28;20046;-74
2022/01/01 05:52:21;;;;;;;0.57;0.57;;;;;;;11.97;70.27;99949.53;5026422;28;20139;-71
2022/01/01 05:54:48;;;;;;;0.20;0.20;;;;;;;11.95;70.40;99954.13;5024658;28;20045;-71
2022/01/01 05:57:15;;;;;;;0.30;0.30;;;;;;;11.96;70.29;99952.34;5025039;28;20057;-71
2022/01/01 05:59:42;;;;;;;0.08;0.08;;;;;;;11.97;70.35;99954.00;5024785;28;20096;-74
2022/01/01 06:02:09;;;;;;;0.10;0.10;;;;;;;11.97;70.28;99949.53;5024666;28;20041;-73
2022/01/01 06:04:38;;;;;;;0.08;0.08;;;;;;;11.98;70.48;99964.47;5024718;28;20092;-72
2022/01/01 06:07:07;;;;;;;0.00;0.00;;;;;;;11.99;70.39;99979.41;5024850;28;20046;-71
2022/01/01 06:09:34;;;;;;;1.17;1.17;;;;;;;11.98;70.46;99979.53;5024273;28;20055;-71
2022/01/01 06:12:01;;;;;;;0.63;0.63;;;;;;;12.00;70.31;99981.06;5023978;28;20045;-70
2022/01/01 06:14:28;;;;;;;0.63;0.63;;;;;;;11.97;70.44;99973.38;5025284;28;20050;-73
2022/01/01 06:16:55;;;;;;;0.40;0.40;;;;;;;11.97;70.54;99985.78;5025086;28;20670;-74
2022/01/01 06:19:23;;;;;;;0.10;0.10;;;;;;;11.92;70.45;99986.16;5022713;28;20050;-76
2022/01/01 06:21:51;;;;;;;0.93;0.93;;;;;;;11.98;70.46;99990.94;5024917;28;20049;-72
2022/01/01 06:24:18;;;;;;;0.22;0.22;;;;;;;11.98;70.27;99988.28;5024403;28;20052;-74
2022/01/01 06:26:46;;;;;;;0.85;0.77;;;;;;;11.96;70.38;99995.53;5007580;28;20049;-75
2022/01/01 06:29:13;;;;;;;0.20;0.20;;;;;;;11.98;70.28;99998.88;5024659;28;20046;-73
2022/01/01 06:31:40;;;;;;;0.00;0.00;;;;;;;11.99;70.23;99997.06;5024720;28;20053;-72
2022/01/01 06:34:08;;;;;;;0.10;0.10;;;;;;;11.98;70.17;100004.19;5021434;28;20045;-75
2022/01/01 06:36:35;;;;;;;0.00;0.00;;;;;;;11.97;70.30;100013.06;5024734;28;20117;-76
2022/01/01 06:39:06;;;;;;;0.40;0.40;;;;;;;11.98;70.34;100006.81;5025063;28;20130;-69
2022/01/01 06:41:33;;;;;;;0.10;0.10;;;;;;;11.97;70.22;100009.59;5024870;28;20047;-77
2022/01/01 06:44:00;;;;;;;0.40;0.40;;;;;;;11.97;70.30;100005.13;5024442;28;20061;-73
2022/01/01 06:46:27;;;;;;;0.70;0.65;;;;;;;12.00;70.10;100004.06;5024737;28;20046;-70
2022/01/01 06:48:54;;;;;;;0.75;0.75;;;;;;;12.00;70.06;100002.25;5003389;28;20053;-74
2022/01/01 06:51:21;;;;;;;0.03;0.03;;;;;;;12.02;70.13;100004.75;5004989;28;20150;-72
2022/01/01 06:53:48;;;;;;;0.82;0.82;;;;;;;12.03;70.05;100007.28;5003772;28;20041;-72
2022/01/01 06:56:17;;;;;;;0.00;0.00;;;;;;;12.02;69.90;100013.53;5004670;28;20045;-71
2022/01/01 06:58:44;;;;;;;0.55;0.55;;;;;;;12.02;69.77;100020.66;5007265;28;20720;-71
2022/01/01 07:01:12;;;;;;;0.10;0.10;;;;;;;12.04;69.92;100026.66;5008412;28;20081;-72
2022/01/01 07:03:39;;;;;;;0.43;0.43;;;;;;;12.04;69.71;100030.13;5009815;28;20152;-75
2022/01/01 07:06:06;;;;;;;0.38;0.38;;;;;;;12.03;69.92;100023.16;5008074;28;20549;-73
2022/01/01 07:08:33;;;;;;;0.28;0.28;;;;;;;12.04;69.74;100026.66;5015189;28;20117;-71
2022/01/01 07:11:00;;;;;;;0.08;0.08;;;;;;;12.03;69.55;100028.47;5014110;28;20057;-68
2022/01/01 07:13:29;;;;;;;0.00;0.00;;;;;;;12.04;69.74;100034.59;5009738;28;20046;-74
2022/01/01 07:15:56;;;;;;;0.25;0.25;;;;;;;12.07;69.49;100026.41;5009869;28;20042;-70
2022/01/01 07:18:23;;;;;;;0.00;0.00;;;;;;;12.03;69.45;100041.69;5008996;28;20046;-73
2022/01/01 07:20:50;;;;;;;1.20;1.20;;;;;;;12.08;69.47;100048.41;5005775;28;20068;-74
2022/01/01 07:23:17;;;;;;;0.10;0.10;;;;;;;12.04;69.40;100048.66;5008649;28;20543;-70
2022/01/01 07:25:44;;;;;;;0.10;0.10;;;;;;;12.05;69.19;100042.41;5007641;28;20080;-68
2022/01/01 07:28:16;;;;;;;0.63;0.38;;;;;;;12.04;69.13;100051.31;5008099;28;20072;-71
2022/01/01 07:30:47;;;;;;;0.10;0.10;;;;;;;12.05;69.13;100063.59;5008237;28;20054;-74
2022/01/01 07:33:14;;;;;;;0.10;0.10;;;;;;;12.05;69.03;100053.00;5024510;28;20050;-71
2022/01/01 07:35:42;;;;;;;0.20;0.20;;;;;;;12.05;69.10;100065.41;5022995;28;20077;-72
2022/01/01 07:38:09;;;;;;;1.75;1.35;;;;;;;12.06;69.00;100067.06;5015829;28;20049;-72
2022/01/01 07:40:37;;;;;;;0.30;0.30;;;;;;;12.09;68.82;100069.47;4997150;28;20514;-70
2022/01/01 07:43:11;;;;;;;0.05;0.05;;;;;;;12.13;68.92;100073.53;5012768;28;20449;-72
2022/01/01 07:45:38;;;;;;;7.57;1.17;;;;;;;12.13;68.76;100068.25;5017396;28;20057;-73
2022/01/01 07:48:07;;;;;;;1.60;1.60;;;;;;;12.14;68.75;100077.06;5007579;28;20557;-75
2022/01/01 07:50:35;;;;;;;5.13;2.40;;;;;;;12.15;68.88;100076.06;5005897;28;20121;-73
2022/01/01 07:53:04;;;;;;;0.63;0.63;;;;;;;12.18;68.83;100081.94;5009730;28;20060;-71
2022/01/01 07:55:31;;;;;;;0.10;0.10;;;;;;;12.19;68.71;100082.78;5008805;28;20453;-72
2022/01/01 07:57:58;;;;;;;0.10;0.10;;;;;;;12.19;68.66;100088.09;5009882;28;20050;-72
2022/01/01 08:00:25;;;;;;;1.45;1.45;;;;;;;12.19;68.89;100091.59;5010663;28;20046;-73
2022/01/01 08:02:52;;;;;;;0.60;0.60;;;;;;;12.21;68.81;100094.13;5016001;28;20046;-74
2022/01/01 08:05:21;;;;;;;0.65;0.65;;;;;;;12.21;68.71;100096.78;5008756;28;20050;-74
2022/01/01 08:07:49;;;;;;;0.82;0.82;;;;;;;12.21;68.88;100096.78;5008713;28;20053;-77
2022/01/01 08:10:19;;;;;;;0.30;0.30;;;;;;;12.21;68.62;100092.31;5008788;28;20050;-69
2022/01/01 08:12:47;;;;;;;3.50;1.85;;;;;;;12.26;68.81;100088.44;5008332;28;20046;-72
2022/01/01 08:15:14;;;;;;;0.10;0.10;;;;;;;12.33;68.67;100090.44;5010992;28;20057;-73
2022/01/01 08:17:41;;;;;;;1.73;1.63;;;;;;;12.37;68.47;100086.59;5005735;28;20050;-74
2022/01/01 08:20:09;;;;;;;0.93;0.93;;;;;;;12.40;68.58;100094.25;5006609;28;20145;-74
2022/01/01 08:22:38;;;;;;;0.10;0.10;;;;;;;12.45;68.59;100098.34;5007601;28;20600;-75
2022/01/01 08:25:06;;;;;;;0.00;0.00;;;;;;;12.43;68.56;100096.66;5008069;28;20046;-70
2022/01/01 08:27:34;;;;;;;0.20;0.20;;;;;;;12.43;68.43;100096.66;5008446;28;20050;-76
2022/01/01 08:30:02;;;;;;;0.00;0.00;;;;;;;12.41;68.82;100101.25;4975883;28;20053;-72
2022/01/01 08:32:30;;;;;;;0.00;0.00;;;;;;;12.46;68.55;100100.88;4989423;28;20698;-75
2022/01/01 08:34:57;;;;;;;0.82;0.82;;;;;;;12.47;68.73;100102.53;4955956;28;20393;-73
2022/01/01 08:37:24;;;;;;;0.40;0.35;;;;;;;12.49;68.82;100108.56;5005565;28;20497;-74
2022/01/01 08:39:52;;;;;;;0.30;0.30;;;;;;;12.52;68.69;100104.81;5005494;28;20132;-69
2022/01/01 08:42:19;;;;;;;8.27;3.35;;;;;;;12.51;68.70;100100.47;5006714;28;20045;-72
2022/01/01 08:44:48;;;;;;;0.70;0.70;;;;;;;12.53;68.76;100102.06;5004677;28;20127;-72
2022/01/01 08:47:15;;;;;;;0.00;0.00;;;;;;;12.57;68.56;100110.59;4993507;28;20064;-75
2022/01/01 08:49:42;;;;;;;0.08;0.08;;;;;;;12.61;68.65;100109.34;5024800;28;20050;-73
2022/01/01 08:52:12;;;;;;;0.98;0.98;;;;;;;12.62;68.62;100111.88;5024225;28;20684;-69
2022/01/01 08:54:39;;;;;;;0.08;0.08;;;;;;;12.62;68.66;100108.38;5024014;28;20063;-75
2022/01/01 08:57:09;;;;;;;0.00;0.00;;;;;;;12.65;68.80;100112.59;4989114;28;20053;-75
2022/01/01 08:59:36;;;;;;;0.30;0.30;;;;;;;12.72;68.49;100105.81;5023737;28;20045;-70
2022/01/01 09:02:04;;;;;;;0.52;0.43;;;;;;;12.69;68.61;100121.97;5024655;28;20045;-73
2022/01/01 09:04:43;;;;;;;0.10;0.10;;;;;;;12.67;68.58;100122.09;5024016;28;20038;-78
2022/01/01 09:07:13;;;;;;;0.28;0.28;;;;;;;12.68;68.62;100121.13;5020648;28;20139;-73
2022/01/01 09:09:40;;;;;;;0.00;0.00;;;;;;;12.72;68.66;100119.91;5007279;28;20057;-79
2022/01/01 09:12:10;;;;;;;0.20;0.20;;;;;;;12.75;68.70;100113.50;5024027;28;20457;-73
2022/01/01 09:14:38;;;;;;;0.00;0.00;;;;;;;12.76;68.50;100121.31;5019803;28;20076;-73
2022/01/01 09:17:07;;;;;;;0.55;0.55;;;;;;;12.79;68.56;100122.88;5023205;28;20045;-73
2022/01/01 09:19:34;;;;;;;0.40;0.40;;;;;;;12.82;68.62;100128.75;5021223;28;20048;-71
2022/01/01 09:22:01;;;;;;;0.10;0.10;;;;;;;12.90;68.50;100130.75;5022842;28;20059;-80
2022/01/01 09:24:28;;;;;;;0.50;0.50;;;;;;;12.96;68.56;100132.06;5025818;28;20050;-76
2022/01/01 09:26:55;;;;;;;1.05;1.05;;;;;;;13.01;68.53;100140.47;5024606;28;20047;-74
2022/01/01 09:29:26;;;;;;;0.10;0.10;;;;;;;13.04;68.48;100140.22;5023968;28;20092;-75
2022/01/01 09:31:53;;;;;;;0.10;0.10;;;;;;;13.00;68.39;100131.69;5024949;28;20041;-73
2022/01/01 09:34:20;;;;;;;0.95;0.95;;;;;;;12.98;68.41;100128.31;5023043;28;20129;-71
2022/01/01 09:36:49;;;;;;;0.30;0.30;;;;;;;13.00;68.47;100139.63;5021388;28;20042;-73
2022/01/01 09:39:18;;;;;;;0.20;0.20;;;;;;;13.14;68.24;100138.47;5015225;28;20072;-73
2022/01/01 09:41:48;;;;;;;0.20;0.20;;;;;;;13.25;68.09;100134.03;5026688;28;20049;-80
2022/01/01 09:44:18;;;;;;;0.00;0.00;;;;;;;13.22;67.99;100137.81;5025046;28;20068;-77
2022/01/01 09:46:47;;;;;;;1.90;1.75;;;;;;;13.19;67.82;100136.22;5039910;28;20060;-76
2022/01/01 09:49:15;;;;;;;1.23;1.13;;;;;;;13.19;67.86;100146.00;5026959;28;20144;-77
2022/01/01 09:51:44;;;;;;;3.88;2.03;;;;;;;13.23;67.68;100135.97;5026635;28;20395;-82
2022/01/01 09:54:15;;;;;;;0.20;0.20;;;;;;;13.19;67.46;100138.06;5028292;28;20107;-79
2022/01/01 09:56:45;;;;;;;1.23;1.23;;;;;;;13.17;67.07;100140.84;5029704;28;20064;-80
2022/01/01 09:59:14;;;;;;;1.08;1.02;;;;;;;13.17;66.63;100137.34;5031944;28;20707;-78
2022/01/01 10:01:53;;;;;;;0.95;0.95;;;;;;;13.20;66.32;100140.56;5032433;28;20064;-81
2022/01/01 10:04:43;;;;;;;0.10;0.10;;;;;;;13.19;66.02;100140.72;5033622;28;20060;-76
2022/01/01 10:07:29;;;;;;;0.85;0.85;;;;;;;13.21;65.84;100149.38;5029447;28;20072;-84
2022/01/01 10:10:19;;;;;;;0.10;0.10;;;;;;;13.20;65.40;100143.22;5027859;28;20249;-79
2022/01/01 10:12:52;;;;;;;0.10;0.10;;;;;;;13.10;65.78;100158.25;5035046;28;20628;-86
2022/01/01 10:15:20;;;;;;;0.52;0.52;;;;;;;13.07;66.10;100155.88;5025544;28;20049;-79
2022/01/01 10:18:01;;;;;;;0.10;0.10;;;;;;;13.10;66.01;100158.25;5035549;28;20093;-79
2022/01/01 10:23:20;;;;;;;0.65;0.65;;;;;;;13.18;65.35;100157.56;5024777;28;20046;-71
2022/01/01 10:28:35;;;;;;;1.10;1.10;;;;;;;13.27;65.15;100148.88;5032232;28;20192;-80
2022/01/01 10:31:12;;;;;;;0.60;0.60;;;;;;;13.26;64.96;100151.63;5011807;28;20053;-79
2022/01/01 10:33:46;;;;;;;0.20;0.20;;;;;;;13.25;64.63;100136.69;5036180;28;20049;-81
2022/01/01 10:36:22;;;;;;;0.32;0.32;;;;;;;13.28;65.11;100165.59;5029903;28;20057;-79
2022/01/01 10:38:49;;;;;;;0.20;0.20;;;;;;;13.26;64.66;100167.56;5027054;28;20049;-77
2022/01/01 10:41:19;;;;;;;0.75;0.75;;;;;;;13.27;64.75;100163.91;5027022;28;20049;-77
2022/01/01 10:43:47;;;;;;;0.32;0.32;;;;;;;13.27;64.93;100169.22;5022303;28;20271;-75
2022/01/01 10:46:17;;;;;;;0.00;0.00;;;;;;;13.22;65.24;100166.97;5033084;28;20049;-80
2022/01/01 10:48:57;;;;;;;0.10;0.10;;;;;;;13.19;65.14;100170.72;5032039;28;20054;-82
2022/01/01 10:51:25;;;;;;;0.60;0.60;;;;;;;13.24;64.97;100174.81;5031590;28;20531;-77
2022/01/01 10:54:05;;;;;;;0.70;0.70;;;;;;;13.21;65.02;100167.94;5032996;28;20063;-80
2022/01/01 10:56:39;;;;;;;0.10;0.10;;;;;;;13.23;65.30;100183.72;5033137;28;20045;-83
2022/01/01 10:59:09;;;;;;;3.65;2.60;;;;;;;13.19;65.62;100199.06;5047378;28;20132;-79
2022/01/01 11:01:49;;;;;;;0.00;0.00;;;;;;;13.23;66.34;100187.19;5028697;28;20069;-83
2022/01/01 11:04:22;;;;;;;7.65;5.30;;;;;;;13.15;66.74;100187.88;5032270;28;20045;-80
2022/01/01 11:06:52;;;;;;;0.85;0.82;;;;;;;13.12;66.39;100188.13;5037994;28;20060;-79
2022/01/01 11:09:23;;;;;;;0.10;0.10;;;;;;;13.10;66.62;100186.56;5050552;28;20054;-81
2022/01/01 11:11:59;;;;;;;0.68;0.68;;;;;;;13.11;66.36;100196.22;5046713;28;20050;-76
2022/01/01 11:14:27;;;;;;;2.85;1.88;;;;;;;13.21;66.00;100197.09;5046782;28;20045;-77
2022/01/01 11:17:18;;;;;;;9.38;7.70;;;;;;;13.24;67.65;100188.06;5044046;28;20557;-79
2022/01/01 11:19:47;;;;;;;10.90;7.75;;;;;;;13.27;68.00;100211.66;4994871;28;20054;-75
2022/01/01 11:22:18;;;;;;;14.60;8.45;;;;;;;13.41;68.13;100207.88;5002483;28;20065;-78
2022/01/01 11:24:47;;;;;;;14.35;9.07;;;;;;;13.40;67.33;100191.13;5006873;28;20073;-80
2022/01/01 11:27:15;;;;;;;16.00;9.48;;;;;;;13.37;66.99;100210.78;5004879;28;20122;-77
2022/01/01 11:29:50;;;;;;;11.73;8.90;;;;;;;13.36;66.67;100208.25;4999851;28;20454;-79
2022/01/01 11:32:20;;;;;;;13.07;8.85;;;;;;;13.37;66.89;100213.44;4996711;28;20042;-77
2022/01/01 11:34:53;;;;;;;10.32;7.32;;;;;;;13.34;66.61;100215.50;4997030;28;20077;-82
2022/01/01 11:37:37;;;;;;;14.13;8.40;;;;;;;13.29;66.39;100217.66;5004423;28;20057;-79